createdAt,value
2024-04-24T00:01:27.633Z,95.01
2024-04-24T00:03:54.928Z,95.37
2024-04-24T00:06:23.168Z,94.73
2024-04-24T00:08:53.211Z,94.76
2024-04-24T00:11:21.481Z,95.02
2024-04-24T00:13:48.911Z,95.39
2024-04-24T00:16:16.287Z,95.24
2024-04-24T00:18:43.974Z,95.01
2024-04-24T00:21:14.008Z,94.98
2024-04-24T00:23:41.322Z,95.45
2024-04-24T00:26:11.705Z,95.29
2024-04-24T00:28:39.064Z,95.10
2024-04-24T00:31:06.372Z,95.23
2024-04-24T00:33:33.850Z,95.50
2024-04-24T00:36:01.293Z,95.34
2024-04-24T00:38:28.756Z,94.48
2024-04-24T00:40:56.191Z,94.39
2024-04-24T00:43:26.180Z,94.40
2024-04-24T00:45:53.628Z,94.01
2024-04-24T00:48:21.091Z,94.05
2024-04-24T00:50:49.012Z,94.35
2024-04-24T00:53:16.499Z,94.42
2024-04-24T00:55:44.325Z,95.27
2024-04-24T00:58:13.816Z,95.52
2024-04-24T01:00:44.415Z,95.30
2024-04-24T01:03:12.262Z,95.18
2024-04-24T01:05:39.798Z,95.54
2024-04-24T01:08:07.613Z,95.98
2024-04-24T01:10:34.936Z,95.79
2024-04-24T01:13:02.434Z,96.08
2024-04-24T01:15:30.267Z,96.10
2024-04-24T01:18:00.910Z,96.38
2024-04-24T01:20:29.160Z,96.25
2024-04-24T01:23:18.655Z,96.52
2024-04-24T01:25:51.281Z,96.23
2024-04-24T01:28:23.081Z,96.93
2024-04-24T01:30:50.567Z,97.26
2024-04-24T01:33:18.326Z,96.83
2024-04-24T01:35:45.913Z,97.21
2024-04-24T01:38:13.360Z,97.25
2024-04-24T01:40:40.696Z,97.35
2024-04-24T01:43:08.028Z,96.70
2024-04-24T01:45:38.308Z,96.95
2024-04-24T01:48:06.539Z,96.80
2024-04-24T01:50:34.065Z,96.87
2024-04-24T01:53:01.594Z,96.53
2024-04-24T01:55:29.098Z,96.30
2024-04-24T01:57:56.420Z,95.86
2024-04-24T02:00:23.792Z,96.16
2024-04-24T02:02:54.019Z,96.01
2024-04-24T02:05:21.391Z,95.65
2024-04-24T02:07:48.950Z,95.70
2024-04-24T02:10:16.549Z,95.40
2024-04-24T02:12:43.954Z,95.77
2024-04-24T02:15:11.592Z,95.80
2024-04-24T02:17:38.923Z,95.51
2024-04-24T02:20:10.227Z,95.57
2024-04-24T02:22:39.765Z,95.60
2024-04-24T02:25:25.835Z,95.43
2024-04-24T02:27:53.233Z,95.51
2024-04-24T02:30:20.537Z,95.71
2024-04-24T02:32:48.061Z,95.55
2024-04-24T02:35:18.380Z,96.24
2024-04-24T02:37:45.862Z,96.64
2024-04-24T02:40:13.341Z,96.62
2024-04-24T02:42:40.688Z,96.85
2024-04-24T02:45:08.564Z,96.30
2024-04-24T02:47:36.105Z,96.15
2024-04-24T02:50:03.766Z,96.25
2024-04-24T02:52:34.039Z,96.66
2024-04-24T02:55:01.412Z,96.42
2024-04-24T02:57:29.895Z,96.12
2024-04-24T02:59:57.217Z,95.67
2024-04-24T03:02:24.608Z,95.40
2024-04-24T03:04:52.126Z,95.19
2024-04-24T03:07:19.455Z,95.13
2024-04-24T03:09:49.475Z,94.93
2024-04-24T03:12:16.883Z,94.87
2024-04-24T03:14:44.228Z,94.59
2024-04-24T03:17:11.646Z,94.82
2024-04-24T03:19:39.152Z,94.64
2024-04-24T03:22:06.587Z,94.82
2024-04-24T03:24:33.884Z,94.69
2024-04-24T03:27:04.015Z,94.59
2024-04-24T03:29:31.782Z,94.43
2024-04-24T03:31:59.237Z,94.28
2024-04-24T03:34:26.670Z,94.19
2024-04-24T03:36:54.002Z,94.54
2024-04-24T03:39:21.305Z,94.53
2024-04-24T03:41:48.583Z,94.73
2024-04-24T03:44:19.007Z,94.61
2024-04-24T03:46:46.497Z,94.80
2024-04-24T03:49:14.081Z,94.63
2024-04-24T03:51:41.421Z,94.59
2024-04-24T03:54:08.794Z,94.31
2024-04-24T03:56:36.213Z,94.43
2024-04-24T03:59:03.782Z,94.04
2024-04-24T04:01:33.798Z,94.04
2024-04-24T04:04:03.356Z,93.74
2024-04-24T04:06:31.063Z,93.98
2024-04-24T04:08:58.392Z,93.64
2024-04-24T04:11:25.808Z,93.80
2024-04-24T04:13:55.270Z,93.92
2024-04-24T04:16:22.653Z,93.76
2024-04-24T04:18:52.872Z,93.64
2024-04-24T04:21:20.237Z,93.36
2024-04-24T04:23:47.505Z,93.67
2024-04-24T04:26:15.049Z,93.58
2024-04-24T04:28:42.517Z,93.44
2024-04-24T04:31:09.806Z,93.73
2024-04-24T04:33:37.422Z,93.45
2024-04-24T04:36:08.784Z,92.93
2024-04-24T04:38:36.108Z,93.40
2024-04-24T04:41:04.879Z,94.24
2024-04-24T04:43:32.217Z,94.96
2024-04-24T04:45:59.727Z,95.23
2024-04-24T04:48:27.118Z,95.70
2024-04-24T04:50:54.804Z,94.75
2024-04-24T04:53:24.886Z,94.75
2024-04-24T04:55:52.241Z,94.66
2024-04-24T04:58:19.488Z,94.55
2024-04-24T05:00:46.833Z,94.56
2024-04-24T05:03:14.358Z,94.58
2024-04-24T05:05:41.764Z,94.80
2024-04-24T05:08:09.198Z,94.29
2024-04-24T05:10:39.307Z,94.54
2024-04-24T05:13:10.701Z,94.82
2024-04-24T05:15:38.510Z,94.61
2024-04-24T05:18:06.376Z,94.64
2024-04-24T05:20:33.940Z,94.60
2024-04-24T05:23:05.676Z,94.34
2024-04-24T05:25:37.905Z,94.04
2024-04-24T05:28:28.932Z,93.27
2024-04-24T05:30:56.468Z,91.93
2024-04-24T05:33:24.043Z,91.75
2024-04-24T05:35:51.529Z,91.77
2024-04-24T05:38:18.904Z,91.20
2024-04-24T05:40:46.363Z,89.04
2024-04-24T05:43:17.017Z,88.70
2024-04-24T05:45:44.515Z,88.85
2024-04-24T05:48:12.445Z,87.65
2024-04-24T05:50:39.851Z,86.20
2024-04-24T05:53:07.256Z,85.92
2024-04-24T05:55:34.545Z,84.59
2024-04-24T05:58:01.924Z,85.49
2024-04-24T06:00:32.046Z,85.41
2024-04-24T06:03:00.300Z,85.63
2024-04-24T06:05:27.889Z,84.95
2024-04-24T06:07:56.814Z,85.11
2024-04-24T06:10:24.332Z,84.59
2024-04-24T06:12:51.646Z,83.93
2024-04-24T06:15:19.090Z,83.07
2024-04-24T06:17:49.227Z,83.84
2024-04-24T06:20:18.125Z,82.59
2024-04-24T06:22:45.884Z,82.63
2024-04-24T06:25:13.274Z,82.03
2024-04-24T06:27:40.666Z,81.43
2024-04-24T06:30:08.590Z,81.08
2024-04-24T06:32:36.108Z,82.19
2024-04-24T06:35:06.273Z,81.43
2024-04-24T06:37:33.839Z,81.39
2024-04-24T06:40:01.172Z,79.21
2024-04-24T06:42:29.556Z,78.89
2024-04-24T06:44:56.941Z,78.41
2024-04-24T06:47:24.411Z,77.31
2024-04-24T06:49:51.910Z,77.88
2024-04-24T06:52:22.033Z,77.88
2024-04-24T06:54:49.484Z,77.34
2024-04-24T06:57:18.362Z,76.76
2024-04-24T06:59:48.586Z,75.97
2024-04-24T07:02:16.152Z,75.86
2024-04-24T07:04:43.506Z,75.71
2024-04-24T07:07:11.037Z,75.83
2024-04-24T07:09:41.283Z,75.09
2024-04-24T07:12:08.628Z,75.51
2024-04-24T07:14:35.982Z,76.21
2024-04-24T07:17:03.594Z,76.39
2024-04-24T07:19:31.016Z,75.85
2024-04-24T07:21:58.578Z,75.50
2024-04-24T07:24:25.935Z,74.87
2024-04-24T07:26:58.183Z,74.82
2024-04-24T07:29:25.782Z,74.02
2024-04-24T07:31:53.447Z,73.69
2024-04-24T07:34:21.128Z,73.46
2024-04-24T07:36:48.572Z,73.54
2024-04-24T07:39:15.984Z,74.21
2024-04-24T07:41:43.934Z,72.56
2024-04-24T07:44:13.796Z,70.99
2024-04-24T07:46:41.572Z,69.46
2024-04-24T07:49:08.868Z,68.89
2024-04-24T07:51:36.311Z,67.51
2024-04-24T07:54:03.735Z,66.95
2024-04-24T07:56:31.168Z,68.21
2024-04-24T07:58:58.653Z,67.93
2024-04-24T08:01:28.867Z,67.75
2024-04-24T08:03:56.473Z,65.34
2024-04-24T08:06:23.854Z,64.14
2024-04-24T08:08:51.138Z,66.48
2024-04-24T08:11:18.679Z,62.67
2024-04-24T08:13:46.090Z,60.34
2024-04-24T08:16:13.516Z,62.84
2024-04-24T08:18:45.418Z,58.75
2024-04-24T08:21:12.832Z,59.42
2024-04-24T08:23:40.332Z,56.77
2024-04-24T08:26:08.636Z,57.01
2024-04-24T08:28:40.972Z,56.43
2024-04-24T08:31:09.619Z,53.77
2024-04-24T08:33:37.716Z,52.59
2024-04-24T08:36:13.635Z,54.58
2024-04-24T08:38:41.406Z,55.04
2024-04-24T08:41:09.776Z,53.79
2024-04-24T08:43:38.476Z,53.58
2024-04-24T08:46:07.093Z,51.49
2024-04-24T08:48:35.750Z,51.85
2024-04-24T08:51:03.663Z,50.86
2024-04-24T08:53:34.597Z,49.86
2024-04-24T08:56:04.338Z,50.85
2024-04-24T08:58:33.739Z,51.81
2024-04-24T09:01:05.477Z,50.66
2024-04-24T09:03:35.009Z,50.77
2024-04-24T09:06:03.989Z,51.45
2024-04-24T09:08:36.417Z,51.43
2024-04-24T09:11:04.149Z,51.57
2024-04-24T09:13:31.343Z,51.16
2024-04-24T09:16:01.120Z,50.29
2024-04-24T09:18:28.745Z,50.76
2024-04-24T09:20:56.985Z,49.61
2024-04-24T09:23:25.769Z,49.96
2024-04-24T09:25:56.981Z,51.32
2024-04-24T09:28:24.810Z,49.06
2024-04-24T09:30:53.857Z,48.91
2024-04-24T09:33:22.019Z,49.50
2024-04-24T09:35:49.577Z,50.82
2024-04-24T09:38:17.074Z,49.40
2024-04-24T09:40:44.729Z,47.84
2024-04-24T09:43:14.736Z,47.42
2024-04-24T09:45:42.226Z,48.67
2024-04-24T09:48:17.556Z,46.44
2024-04-24T09:50:47.003Z,48.64
2024-04-24T09:53:17.284Z,47.91
2024-04-24T09:55:49.393Z,47.57
2024-04-24T09:58:23.571Z,46.87
2024-04-24T10:00:52.380Z,46.25
2024-04-24T10:03:20.968Z,44.44
2024-04-24T10:05:56.568Z,43.04
2024-04-24T10:08:30.785Z,42.66
2024-04-24T10:10:58.505Z,43.37
2024-04-24T10:13:29.615Z,43.17
2024-04-24T10:16:04.685Z,46.30
2024-04-24T10:18:34.537Z,43.53
2024-04-24T10:21:04.645Z,43.16
2024-04-24T10:23:32.566Z,43.05
2024-04-24T10:26:00.497Z,41.63
2024-04-24T10:28:31.884Z,39.24
2024-04-24T10:31:00.548Z,38.68
2024-04-24T10:33:28.515Z,39.90
2024-04-24T10:35:57.072Z,41.09
2024-04-24T10:38:27.413Z,38.86
2024-04-24T10:40:55.029Z,37.75
2024-04-24T10:43:24.056Z,38.03
2024-04-24T10:46:01.497Z,35.97
2024-04-24T10:48:43.966Z,34.32
2024-04-24T10:51:11.365Z,37.55
2024-04-24T10:53:55.799Z,36.24
2024-04-24T10:56:34.216Z,38.28
2024-04-24T10:59:03.764Z,37.56
2024-04-24T11:01:42.128Z,38.64
2024-04-24T11:04:16.540Z,36.65
2024-04-24T11:06:44.213Z,36.68
2024-04-24T11:09:11.979Z,34.82
2024-04-24T11:11:39.700Z,37.23
2024-04-24T11:14:11.107Z,36.36
2024-04-24T11:16:55.405Z,35.58
2024-04-24T11:19:25.789Z,34.24
2024-04-24T11:21:53.123Z,35.16
2024-04-24T11:24:28.480Z,33.22
2024-04-24T11:26:55.957Z,33.49
2024-04-24T11:29:23.532Z,32.45
2024-04-24T11:31:53.564Z,31.07
2024-04-24T11:34:21.243Z,32.21
2024-04-24T11:36:49.209Z,31.11
2024-04-24T11:39:18.899Z,30.62
2024-04-24T11:41:50.695Z,28.15
2024-04-24T11:44:18.316Z,29.09
2024-04-24T11:46:48.609Z,30.83
2024-04-24T11:49:20.996Z,31.00
2024-04-24T11:51:48.572Z,31.28
2024-04-24T11:54:16.289Z,30.87
2024-04-24T11:56:45.818Z,31.35
2024-04-24T11:59:15.828Z,30.83
2024-04-24T12:01:43.500Z,31.31
2024-04-24T12:04:10.993Z,31.50
2024-04-24T12:06:41.540Z,30.92
2024-04-24T12:09:09.222Z,29.55
2024-04-24T12:11:40.372Z,30.97
2024-04-24T12:14:08.062Z,30.55
2024-04-24T12:16:35.392Z,30.58
2024-04-24T12:19:02.723Z,30.45
2024-04-24T12:21:30.257Z,31.06
2024-04-24T12:23:59.960Z,30.45
2024-04-24T12:26:30.467Z,29.97
2024-04-24T12:28:57.890Z,28.90
2024-04-24T12:31:25.402Z,28.55
2024-04-24T12:33:53.030Z,29.50
2024-04-24T12:36:20.546Z,29.45
2024-04-24T12:38:47.675Z,29.57
2024-04-24T12:41:17.783Z,28.90
2024-04-24T12:43:45.247Z,29.70
2024-04-24T12:46:12.534Z,28.11
2024-04-24T12:48:40.802Z,29.75
2024-04-24T12:51:09.041Z,28.69
2024-04-24T12:53:36.669Z,28.34
2024-04-24T12:56:04.656Z,29.15
2024-04-24T12:58:34.969Z,28.68
2024-04-24T13:01:02.464Z,29.32
2024-04-24T13:03:30.018Z,27.98
2024-04-24T13:05:57.345Z,30.21
2024-04-24T13:08:24.786Z,28.92
2024-04-24T13:10:52.067Z,28.75
2024-04-24T13:13:19.611Z,27.27
2024-04-24T13:15:49.760Z,27.70
2024-04-24T13:18:20.555Z,26.79
2024-04-24T13:20:49.450Z,28.61
2024-04-24T13:23:16.477Z,27.58
2024-04-24T13:25:48.993Z,26.92
2024-04-24T13:28:16.882Z,27.76
2024-04-24T13:30:44.874Z,26.87
2024-04-24T13:33:14.950Z,27.20
2024-04-24T13:35:42.343Z,26.78
2024-04-24T13:38:09.412Z,25.94
2024-04-24T13:40:36.906Z,26.57
2024-04-24T13:43:04.793Z,24.65
2024-04-24T13:45:32.216Z,24.23
2024-04-24T13:47:59.647Z,25.23
2024-04-24T13:50:29.936Z,25.98
2024-04-24T13:52:57.384Z,25.27
2024-04-24T13:55:24.817Z,23.16
2024-04-24T13:57:52.192Z,24.06
2024-04-24T14:00:19.739Z,25.00
2024-04-24T14:02:48.766Z,25.66
2024-04-24T14:05:16.246Z,25.13
2024-04-24T14:07:46.339Z,18.53
2024-04-24T14:10:13.885Z,16.77
2024-04-24T14:12:41.188Z,17.50
2024-04-24T14:15:10.094Z,18.60
2024-04-24T14:17:39.119Z,18.79
2024-04-24T14:20:07.778Z,18.88
2024-04-24T14:22:35.123Z,19.29
2024-04-24T14:25:06.356Z,19.71
2024-04-24T14:27:33.715Z,19.43
2024-04-24T14:30:00.883Z,18.86
2024-04-24T14:32:28.413Z,19.22
2024-04-24T14:34:55.996Z,20.20
2024-04-24T14:37:23.031Z,18.95
2024-04-24T14:39:50.387Z,19.31
2024-04-24T14:42:22.387Z,19.85
2024-04-24T14:44:49.823Z,19.64
2024-04-24T14:47:19.761Z,20.38
2024-04-24T14:49:47.461Z,19.69
2024-04-24T14:52:19.289Z,20.02
2024-04-24T14:54:46.633Z,20.47
2024-04-24T14:57:13.750Z,20.52
2024-04-24T14:59:44.045Z,21.27
2024-04-24T15:02:11.513Z,20.41
2024-04-24T15:04:39.075Z,19.84
2024-04-24T15:07:16.741Z,20.38
2024-04-24T15:09:44.208Z,20.49
2024-04-24T15:12:12.206Z,20.72
2024-04-24T15:14:39.844Z,21.02
2024-04-24T15:17:09.733Z,21.02
2024-04-24T15:19:39.499Z,21.00
2024-04-24T15:22:08.181Z,21.37
2024-04-24T15:24:36.131Z,20.92
2024-04-24T15:27:04.045Z,20.59
2024-04-24T15:29:31.544Z,21.01
2024-04-24T15:31:59.220Z,21.68
2024-04-24T15:34:29.277Z,21.37
2024-04-24T15:36:56.748Z,21.19
2024-04-24T15:39:24.220Z,21.18
2024-04-24T15:41:56.116Z,21.56
2024-04-24T15:44:23.555Z,21.57
2024-04-24T15:46:50.979Z,21.60
2024-04-24T15:49:19.416Z,20.29
2024-04-24T15:51:49.513Z,21.36
2024-04-24T15:54:16.954Z,20.77
2024-04-24T15:56:44.272Z,20.69
2024-04-24T15:59:11.708Z,20.73
2024-04-24T16:01:38.951Z,21.89
2024-04-24T16:04:06.247Z,21.72
2024-04-24T16:06:33.653Z,22.20
2024-04-24T16:09:03.718Z,21.26
2024-04-24T16:11:31.138Z,21.71
2024-04-24T16:13:58.680Z,22.50
2024-04-24T16:16:25.959Z,22.28
2024-04-24T16:18:53.526Z,22.53
2024-04-24T16:21:21.529Z,22.04
2024-04-24T16:23:49.102Z,22.89
2024-04-24T16:26:19.013Z,22.25
2024-04-24T16:28:46.638Z,23.46
2024-04-24T16:31:14.163Z,24.41
2024-04-24T16:33:41.420Z,23.99
2024-04-24T16:36:11.575Z,24.42
2024-04-24T16:38:39.108Z,23.83
2024-04-24T16:41:07.975Z,24.01
2024-04-24T16:43:38.073Z,25.53
2024-04-24T16:46:05.489Z,27.02
2024-04-24T16:48:33.004Z,28.69
2024-04-24T16:51:00.623Z,29.25
2024-04-24T16:53:28.043Z,30.06
2024-04-24T16:55:55.515Z,31.96
2024-04-24T16:58:23.007Z,33.35
2024-04-24T17:00:53.132Z,34.61
2024-04-24T17:03:20.675Z,37.23
2024-04-24T17:05:48.001Z,37.09
2024-04-24T17:08:15.423Z,37.09
2024-04-24T17:10:43.364Z,37.32
2024-04-24T17:13:10.725Z,36.93
2024-04-24T17:15:38.866Z,36.74
2024-04-24T17:18:09.139Z,34.75
2024-04-24T17:20:36.616Z,35.14
2024-04-24T17:23:04.212Z,35.15
2024-04-24T17:25:31.602Z,34.62
2024-04-24T17:27:59.079Z,34.09
2024-04-24T17:30:26.471Z,33.48
2024-04-24T17:32:53.926Z,33.11
2024-04-24T17:35:26.187Z,32.24
2024-04-24T17:37:53.678Z,32.50
2024-04-24T17:40:21.312Z,31.98
2024-04-24T17:42:48.765Z,32.19
2024-04-24T17:45:16.225Z,32.32
2024-04-24T17:47:44.205Z,32.24
2024-04-24T17:50:11.340Z,32.42
2024-04-24T17:52:41.683Z,32.17
2024-04-24T17:55:09.017Z,32.51
2024-04-24T17:57:37.105Z,32.44
2024-04-24T18:00:05.109Z,32.60
2024-04-24T18:02:33.545Z,31.83
2024-04-24T18:05:02.613Z,32.24
2024-04-24T18:07:30.054Z,32.05
2024-04-24T18:10:00.180Z,32.20
2024-04-24T18:12:27.502Z,31.73
2024-04-24T18:14:55.818Z,31.74
2024-04-24T18:17:23.138Z,30.83
2024-04-24T18:19:50.869Z,30.76
2024-04-24T18:22:18.257Z,30.42
2024-04-24T18:24:45.534Z,30.49
2024-04-24T18:27:15.670Z,29.64
2024-04-24T18:29:43.220Z,30.02
2024-04-24T18:32:10.819Z,30.48
2024-04-24T18:34:38.909Z,31.28
2024-04-24T18:37:07.710Z,34.35
2024-04-24T18:39:36.226Z,35.53
2024-04-24T18:42:03.923Z,37.62
2024-04-24T18:44:34.115Z,39.01
2024-04-24T18:47:01.567Z,40.27
2024-04-24T18:49:29.060Z,40.56
2024-04-24T18:51:56.562Z,40.68
2024-04-24T18:54:24.236Z,40.51
2024-04-24T18:56:51.751Z,41.08
2024-04-24T18:59:19.617Z,41.83
2024-04-24T19:01:50.031Z,41.86
2024-04-24T19:04:18.247Z,41.51
2024-04-24T19:06:45.814Z,42.14
2024-04-24T19:09:13.271Z,41.74
2024-04-24T19:11:40.844Z,41.09
2024-04-24T19:14:10.563Z,41.09
2024-04-24T19:16:38.219Z,40.81
2024-04-24T19:19:08.326Z,41.07
2024-04-24T19:21:35.759Z,40.84
2024-04-24T19:24:03.215Z,40.85
2024-04-24T19:26:30.892Z,42.56
2024-04-24T19:28:58.301Z,43.92
2024-04-24T19:31:32.611Z,41.77
2024-04-24T19:34:01.308Z,41.00
2024-04-24T19:36:31.868Z,41.09
2024-04-24T19:38:59.294Z,41.88
2024-04-24T19:41:26.822Z,41.33
2024-04-24T19:43:54.332Z,42.02
2024-04-24T19:46:21.808Z,42.09
2024-04-24T19:48:52.613Z,42.20
2024-04-24T19:51:20.137Z,43.12
2024-04-24T19:53:54.665Z,43.30
2024-04-24T19:56:22.039Z,43.86
2024-04-24T19:58:49.465Z,43.53
2024-04-24T20:01:16.921Z,44.28
2024-04-24T20:03:44.534Z,44.06
2024-04-24T20:06:13.115Z,43.95
2024-04-24T20:08:40.722Z,43.09
2024-04-24T20:11:10.892Z,43.09
2024-04-24T20:13:38.379Z,44.41
2024-04-24T20:16:06.607Z,45.01
2024-04-24T20:18:35.723Z,44.77
2024-04-24T20:21:03.581Z,46.18
2024-04-24T20:23:31.192Z,46.78
2024-04-24T20:25:58.672Z,46.74
2024-04-24T20:28:28.723Z,46.77
2024-04-24T20:30:56.587Z,48.02
2024-04-24T20:33:25.386Z,49.18
2024-04-24T20:35:53.011Z,50.22
2024-04-24T20:38:20.469Z,50.07
2024-04-24T20:40:47.946Z,50.94
2024-04-24T20:43:15.362Z,50.01
2024-04-24T20:45:45.446Z,47.74
2024-04-24T20:48:13.145Z,47.82
2024-04-24T20:50:40.758Z,48.38
2024-04-24T20:53:09.232Z,48.45
2024-04-24T20:55:36.698Z,48.13
2024-04-24T20:58:04.516Z,48.58
2024-04-24T21:00:31.964Z,48.81
2024-04-24T21:03:02.348Z,47.99
2024-04-24T21:05:30.174Z,47.64
2024-04-24T21:07:57.617Z,48.41
2024-04-24T21:10:25.025Z,48.53
2024-04-24T21:12:52.427Z,48.25
2024-04-24T21:15:19.785Z,48.46
2024-04-24T21:17:47.286Z,48.37
2024-04-24T21:20:17.616Z,47.99
2024-04-24T21:22:45.177Z,48.56
2024-04-24T21:25:13.224Z,47.88
2024-04-24T21:27:40.790Z,47.23
2024-04-24T21:30:08.859Z,46.92
2024-04-24T21:32:36.349Z,47.45
2024-04-24T21:35:04.014Z,48.02
2024-04-24T21:37:36.650Z,46.77
2024-04-24T21:40:08.295Z,45.50
2024-04-24T21:42:35.639Z,45.71
2024-04-24T21:45:03.098Z,45.75
2024-04-24T21:47:30.721Z,47.46
2024-04-24T21:49:58.046Z,48.17
2024-04-24T21:52:25.554Z,48.03
2024-04-24T21:54:55.683Z,48.13
2024-04-24T21:57:23.084Z,48.84
2024-04-24T21:59:50.460Z,48.76
2024-04-24T22:02:18.962Z,48.35
2024-04-24T22:04:46.441Z,48.80
2024-04-24T22:07:13.943Z,49.25
2024-04-24T22:09:41.392Z,51.36
2024-04-24T22:12:14.286Z,50.19
2024-04-24T22:14:42.089Z,49.29
2024-04-24T22:17:19.132Z,49.09
2024-04-24T22:19:52.384Z,49.83
2024-04-24T22:22:20.513Z,50.28
2024-04-24T22:24:47.901Z,50.08
2024-04-24T22:27:17.911Z,50.25
2024-04-24T22:29:45.316Z,51.01
2024-04-24T22:32:12.742Z,50.98
2024-04-24T22:34:40.600Z,51.20
2024-04-24T22:37:08.597Z,51.55
2024-04-24T22:39:36.282Z,50.66
2024-04-24T22:42:04.930Z,50.43
2024-04-24T22:44:35.339Z,50.56
2024-04-24T22:47:02.747Z,50.95
2024-04-24T22:49:30.054Z,51.03
2024-04-24T22:51:57.624Z,51.51
2024-04-24T22:54:24.985Z,50.90
2024-04-24T22:56:52.773Z,51.83
2024-04-24T22:59:20.403Z,52.40
2024-04-24T23:01:54.188Z,51.45
2024-04-24T23:04:21.697Z,52.01
2024-04-24T23:06:48.980Z,52.08
2024-04-24T23:09:16.350Z,52.56
2024-04-24T23:11:43.732Z,52.33
2024-04-24T23:14:11.154Z,52.25
2024-04-24T23:16:38.623Z,52.39
2024-04-24T23:19:08.648Z,54.08
2024-04-24T23:21:36.153Z,53.37
2024-04-24T23:24:03.611Z,53.72
2024-04-24T23:26:30.937Z,52.92
2024-04-24T23:28:58.280Z,53.17
2024-04-24T23:31:25.749Z,53.39
2024-04-24T23:33:53.186Z,54.42
2024-04-24T23:36:23.323Z,56.14
2024-04-24T23:38:50.676Z,55.86
2024-04-24T23:41:18.238Z,55.35
2024-04-24T23:43:45.632Z,54.76
2024-04-24T23:46:13.240Z,53.08
2024-04-24T23:48:40.551Z,52.39
2024-04-24T23:51:08.003Z,52.95
2024-04-24T23:53:38.218Z,53.20
2024-04-24T23:56:06.825Z,53.97
2024-04-24T23:58:34.635Z,53.46
